createdAt,value
2023-08-02T00:02:04.176Z,1.86
2023-08-02T00:04:30.858Z,2.02
2023-08-02T00:06:57.470Z,2.06
2023-08-02T00:09:24.085Z,1.75
2023-08-02T00:11:50.694Z,1.64
2023-08-02T00:14:17.308Z,1.85
2023-08-02T00:16:44.216Z,1.79
2023-08-02T00:19:11.096Z,1.96
2023-08-02T00:21:37.700Z,1.87
2023-08-02T00:24:04.305Z,1.78
2023-08-02T00:26:30.932Z,1.81
2023-08-02T00:28:57.536Z,1.93
2023-08-02T00:31:24.220Z,1.81
2023-08-02T00:33:50.887Z,1.77
2023-08-02T00:36:17.526Z,1.75
2023-08-02T00:38:44.129Z,1.91
2023-08-02T00:41:10.743Z,1.72
2023-08-02T00:43:37.336Z,1.81
2023-08-02T00:46:04.130Z,1.95
2023-08-02T00:48:31.107Z,2.14
2023-08-02T00:50:57.871Z,1.79
2023-08-02T00:53:24.502Z,1.80
2023-08-02T00:55:51.090Z,2.18
2023-08-02T00:58:17.709Z,1.93
2023-08-02T01:00:44.312Z,2.10
2023-08-02T01:03:11.555Z,2.06
2023-08-02T01:05:38.312Z,2.00
2023-08-02T01:08:04.969Z,1.86
2023-08-02T01:10:31.569Z,2.08
2023-08-02T01:12:58.170Z,1.97
2023-08-02T01:15:24.788Z,2.08
2023-08-02T01:17:51.434Z,1.98
2023-08-02T01:20:18.049Z,1.90
2023-08-02T01:22:44.687Z,1.89
2023-08-02T01:25:11.302Z,1.80
2023-08-02T01:27:37.914Z,1.90
2023-08-02T01:30:04.512Z,1.80
2023-08-02T01:32:31.143Z,1.87
2023-08-02T01:34:57.824Z,1.89
2023-08-02T01:37:24.436Z,2.01
2023-08-02T01:39:51.079Z,1.85
2023-08-02T01:42:17.750Z,1.92
2023-08-02T01:44:44.463Z,1.84
2023-08-02T01:47:11.088Z,1.88
2023-08-02T01:49:37.711Z,1.96
2023-08-02T01:52:04.371Z,1.81
2023-08-02T01:54:31.002Z,1.96
2023-08-02T01:56:57.614Z,1.85
2023-08-02T01:59:24.346Z,1.79
2023-08-02T02:01:50.984Z,1.94
2023-08-02T02:04:17.590Z,1.89
2023-08-02T02:06:44.463Z,1.77
2023-08-02T02:09:11.389Z,1.86
2023-08-02T02:11:37.985Z,1.97
2023-08-02T02:14:04.611Z,1.81
2023-08-02T02:16:31.225Z,1.79
2023-08-02T02:18:57.874Z,1.86
2023-08-02T02:21:24.493Z,1.65
2023-08-02T02:23:51.117Z,1.99
2023-08-02T02:26:17.732Z,1.81
2023-08-02T02:28:44.327Z,1.84
2023-08-02T02:31:10.931Z,1.96
2023-08-02T02:33:37.558Z,1.73
2023-08-02T02:36:04.163Z,1.75
2023-08-02T02:38:30.767Z,1.57
2023-08-02T02:40:57.379Z,1.78
2023-08-02T02:43:23.980Z,1.77
2023-08-02T02:45:50.600Z,1.83
2023-08-02T02:48:17.209Z,1.56
2023-08-02T02:50:43.824Z,1.70
2023-08-02T02:53:10.422Z,1.66
2023-08-02T02:55:37.047Z,1.67
2023-08-02T02:58:03.661Z,1.69
2023-08-02T03:00:30.257Z,1.67
2023-08-02T03:02:56.928Z,1.86
2023-08-02T03:05:23.559Z,1.62
2023-08-02T03:07:50.169Z,1.44
2023-08-02T03:10:16.779Z,1.71
2023-08-02T03:12:43.365Z,1.60
2023-08-02T03:15:09.979Z,1.50
2023-08-02T03:17:36.573Z,1.56
2023-08-02T03:20:03.177Z,1.52
2023-08-02T03:22:29.779Z,1.55
2023-08-02T03:24:56.408Z,1.58
2023-08-02T03:27:23.012Z,1.71
2023-08-02T03:29:49.634Z,1.38
2023-08-02T03:32:16.246Z,1.48
2023-08-02T03:34:42.870Z,1.60
2023-08-02T03:37:09.498Z,1.39
2023-08-02T03:39:36.100Z,1.48
2023-08-02T03:42:02.686Z,1.47
2023-08-02T03:44:29.295Z,1.59
2023-08-02T03:46:55.901Z,1.39
2023-08-02T03:49:22.498Z,1.65
2023-08-02T03:51:49.118Z,1.45
2023-08-02T03:54:15.712Z,1.50
2023-08-02T03:56:42.652Z,1.41
2023-08-02T03:59:09.468Z,1.33
2023-08-02T04:01:36.093Z,1.50
2023-08-02T04:04:02.761Z,1.42
2023-08-02T04:06:29.419Z,1.28
2023-08-02T04:08:56.071Z,1.29
2023-08-02T04:11:22.661Z,1.27
2023-08-02T04:13:49.278Z,1.41
2023-08-02T04:16:15.933Z,1.50
2023-08-02T04:18:42.553Z,1.39
2023-08-02T04:21:09.155Z,1.45
2023-08-02T04:23:35.757Z,1.50
2023-08-02T04:26:02.383Z,1.29
2023-08-02T04:28:29.001Z,1.55
2023-08-02T04:30:55.626Z,1.35
2023-08-02T04:33:22.296Z,1.30
2023-08-02T04:35:48.950Z,1.34
2023-08-02T04:38:15.556Z,1.29
2023-08-02T04:40:42.178Z,1.27
2023-08-02T04:43:08.760Z,1.28
2023-08-02T04:45:35.383Z,1.50
2023-08-02T04:48:02.030Z,1.36
2023-08-02T04:50:28.742Z,1.26
2023-08-02T04:52:55.348Z,1.38
2023-08-02T04:55:21.932Z,1.38
2023-08-02T04:57:48.588Z,1.26
2023-08-02T05:00:15.224Z,1.31
2023-08-02T05:02:41.914Z,1.43
2023-08-02T05:05:08.542Z,1.43
2023-08-02T05:07:35.536Z,1.39
2023-08-02T05:10:02.997Z,1.39
2023-08-02T05:12:29.617Z,1.40
2023-08-02T05:14:56.212Z,1.46
2023-08-02T05:17:22.832Z,1.41
2023-08-02T05:19:49.469Z,1.42
2023-08-02T05:22:16.074Z,1.27
2023-08-02T05:24:42.681Z,1.30
2023-08-02T05:27:09.273Z,1.18
2023-08-02T05:29:35.886Z,1.41
2023-08-02T05:32:02.562Z,1.33
2023-08-02T05:34:29.183Z,1.36
2023-08-02T05:36:55.772Z,1.35
2023-08-02T05:39:22.377Z,1.25
2023-08-02T05:41:48.995Z,1.43
2023-08-02T05:44:15.613Z,1.34
2023-08-02T05:46:42.225Z,1.24
2023-08-02T05:49:08.832Z,1.39
2023-08-02T05:51:35.429Z,1.30
2023-08-02T05:54:02.017Z,1.39
2023-08-02T05:56:28.671Z,1.26
2023-08-02T05:58:55.279Z,1.22
2023-08-02T06:01:21.934Z,1.27
2023-08-02T06:03:48.657Z,1.24
2023-08-02T06:06:15.343Z,1.35
2023-08-02T06:08:41.974Z,1.42
2023-08-02T06:11:08.586Z,1.36
2023-08-02T06:13:35.195Z,1.37
2023-08-02T06:16:01.815Z,1.19
2023-08-02T06:18:28.499Z,1.29
2023-08-02T06:20:55.096Z,1.25
2023-08-02T06:23:21.698Z,1.30
2023-08-02T06:25:48.296Z,1.23
2023-08-02T06:28:14.902Z,1.33
2023-08-02T06:30:41.534Z,1.20
2023-08-02T06:33:08.186Z,1.25
2023-08-02T06:35:34.982Z,1.40
2023-08-02T06:38:01.689Z,1.35
2023-08-02T06:40:28.333Z,1.24
2023-08-02T06:42:54.966Z,1.52
2023-08-02T06:45:21.588Z,1.32
2023-08-02T06:47:48.239Z,1.39
2023-08-02T06:50:14.872Z,1.26
2023-08-02T06:52:41.479Z,1.52
2023-08-02T06:55:08.085Z,1.18
2023-08-02T06:57:34.694Z,1.30
2023-08-02T07:00:01.315Z,1.30
2023-08-02T07:02:27.981Z,1.26
2023-08-02T07:04:54.709Z,1.25
2023-08-02T07:07:21.397Z,1.20
2023-08-02T07:09:47.992Z,1.25
2023-08-02T07:12:14.642Z,1.29
2023-08-02T07:14:41.257Z,1.41
2023-08-02T07:17:07.850Z,1.28
2023-08-02T07:19:34.449Z,1.26
2023-08-02T07:22:01.043Z,1.26
2023-08-02T07:24:27.667Z,1.41
2023-08-02T07:26:54.281Z,1.26
2023-08-02T07:29:20.931Z,1.41
2023-08-02T07:31:47.624Z,1.46
2023-08-02T07:34:14.243Z,1.43
2023-08-02T07:36:40.841Z,1.49
2023-08-02T07:39:07.496Z,1.33
2023-08-02T07:41:34.132Z,1.53
2023-08-02T07:44:00.754Z,1.52
2023-08-02T07:46:27.428Z,1.62
2023-08-02T07:48:54.092Z,1.52
2023-08-02T07:51:20.742Z,1.46
2023-08-02T07:53:47.404Z,1.59
2023-08-02T07:56:14.039Z,1.66
2023-08-02T07:58:40.663Z,1.70
2023-08-02T08:01:07.267Z,1.77
2023-08-02T08:03:33.875Z,1.60
2023-08-02T08:06:00.513Z,1.97
2023-08-02T08:08:27.142Z,1.77
2023-08-02T08:10:53.753Z,1.71
2023-08-02T08:13:20.392Z,1.61
2023-08-02T08:15:46.971Z,1.78
2023-08-02T08:18:13.600Z,1.75
2023-08-02T08:20:40.224Z,1.80
2023-08-02T08:23:06.837Z,2.08
2023-08-02T08:25:33.439Z,1.78
2023-08-02T08:28:00.049Z,1.93
2023-08-02T08:30:26.669Z,1.86
2023-08-02T08:32:53.305Z,1.91
2023-08-02T08:35:19.936Z,1.93
2023-08-02T08:37:46.574Z,1.97
2023-08-02T08:40:18.992Z,1.97
2023-08-02T08:42:45.609Z,2.46
2023-08-02T08:45:12.513Z,2.71
2023-08-02T08:47:39.179Z,2.57
2023-08-02T08:50:05.874Z,2.53
2023-08-02T08:52:32.486Z,2.18
2023-08-02T08:54:59.100Z,2.04
2023-08-02T08:57:25.755Z,2.35
2023-08-02T08:59:52.381Z,2.11
2023-08-02T09:02:19.000Z,2.47
2023-08-02T09:04:45.618Z,2.24
2023-08-02T09:07:12.238Z,2.40
2023-08-02T09:09:38.837Z,2.52
2023-08-02T09:12:05.445Z,2.23
2023-08-02T09:14:32.057Z,2.35
2023-08-02T09:16:58.656Z,2.41
2023-08-02T09:19:25.552Z,2.34
2023-08-02T09:21:52.158Z,2.53
2023-08-02T09:24:18.780Z,2.32
2023-08-02T09:26:45.429Z,2.49
2023-08-02T09:29:12.027Z,2.44
2023-08-02T09:31:38.723Z,2.61
2023-08-02T09:34:05.432Z,2.50
2023-08-02T09:36:32.116Z,2.42
2023-08-02T09:38:58.716Z,2.69
2023-08-02T09:43:54.871Z,2.50
2023-08-02T09:46:21.523Z,2.54
2023-08-02T09:48:48.133Z,2.65
2023-08-02T09:51:14.736Z,2.62
2023-08-02T09:53:41.330Z,2.45
2023-08-02T09:56:07.935Z,2.29
2023-08-02T09:58:34.571Z,2.29
2023-08-02T10:01:01.185Z,2.34
2023-08-02T10:03:28.172Z,2.40
2023-08-02T10:05:54.881Z,2.43
2023-08-02T10:08:21.495Z,2.77
2023-08-02T10:10:48.100Z,2.60
2023-08-02T10:13:14.720Z,2.29
2023-08-02T10:15:41.414Z,2.37
2023-08-02T10:18:08.075Z,2.38
2023-08-02T10:20:34.731Z,2.39
2023-08-02T10:23:01.328Z,2.27
2023-08-02T10:25:27.956Z,2.32
2023-08-02T10:27:54.582Z,2.34
2023-08-02T10:30:21.192Z,2.10
2023-08-02T10:32:47.855Z,2.48
2023-08-02T10:35:14.503Z,2.68
2023-08-02T10:37:41.114Z,2.23
2023-08-02T10:40:07.726Z,2.45
2023-08-02T10:42:34.310Z,2.51
2023-08-02T10:45:00.921Z,2.35
2023-08-02T10:47:27.510Z,2.40
2023-08-02T10:49:54.124Z,2.42
2023-08-02T10:52:20.730Z,2.37
2023-08-02T10:54:47.329Z,2.49
2023-08-02T10:57:13.946Z,2.43
2023-08-02T10:59:40.536Z,2.20
2023-08-02T11:02:07.129Z,2.45
2023-08-02T11:04:33.850Z,2.31
2023-08-02T11:07:00.516Z,2.28
2023-08-02T11:09:27.170Z,2.14
2023-08-02T11:11:53.785Z,2.39
2023-08-02T11:14:20.405Z,2.25
2023-08-02T11:19:16.662Z,2.12
2023-08-02T11:21:43.373Z,2.34
2023-08-02T11:24:09.960Z,2.18
2023-08-02T11:29:06.080Z,2.16
2023-08-02T11:31:32.685Z,2.06
2023-08-02T11:33:59.292Z,2.19
2023-08-02T11:36:25.902Z,2.33
2023-08-02T11:38:52.570Z,2.21
2023-08-02T11:41:19.191Z,2.07
2023-08-02T11:43:45.849Z,2.21
2023-08-02T11:46:12.570Z,2.17
2023-08-02T11:48:39.217Z,2.07
2023-08-02T11:51:05.833Z,2.22
2023-08-02T11:53:32.505Z,2.09
2023-08-02T11:55:59.212Z,2.34
2023-08-02T11:58:25.880Z,2.03
2023-08-02T12:00:52.485Z,2.02
2023-08-02T12:03:19.096Z,2.03
2023-08-02T12:05:45.834Z,2.27
2023-08-02T12:08:12.532Z,2.25
2023-08-02T12:10:39.139Z,2.19
2023-08-02T12:13:05.736Z,1.98
2023-08-02T12:15:32.320Z,2.13
2023-08-02T12:17:58.943Z,2.08
2023-08-02T12:20:25.546Z,1.95
2023-08-02T12:22:52.144Z,2.15
2023-08-02T12:25:18.757Z,2.27
2023-08-02T12:27:45.357Z,2.12
2023-08-02T12:30:12.022Z,1.95
2023-08-02T12:32:38.670Z,1.84
2023-08-02T12:35:11.961Z,1.91
2023-08-02T12:37:39.574Z,2.02
2023-08-02T12:40:06.262Z,2.12
2023-08-02T12:42:34.253Z,1.99
2023-08-02T12:45:15.216Z,1.95
2023-08-02T12:47:44.253Z,1.84
2023-08-02T12:50:10.950Z,1.83
2023-08-02T12:52:37.605Z,1.75
2023-08-02T12:55:04.213Z,1.86
2023-08-02T12:57:30.819Z,2.06
2023-08-02T12:59:57.414Z,1.98
2023-08-02T13:02:24.004Z,2.09
2023-08-02T13:04:50.597Z,1.90
2023-08-02T13:07:18.638Z,1.94
2023-08-02T13:09:45.526Z,1.88
2023-08-02T13:12:13.990Z,1.93
2023-08-02T13:14:42.618Z,1.89
2023-08-02T13:17:09.232Z,2.23
2023-08-02T13:19:35.844Z,1.98
2023-08-02T13:22:02.484Z,1.92
2023-08-02T13:24:29.109Z,1.90
2023-08-02T13:26:55.707Z,1.90
2023-08-02T13:29:23.315Z,1.71
2023-08-02T13:31:50.168Z,1.85
2023-08-02T13:34:16.808Z,2.00
2023-08-02T13:36:44.235Z,1.94
2023-08-02T13:39:11.194Z,1.87
2023-08-02T13:41:40.580Z,2.01
2023-08-02T13:44:07.186Z,2.00
2023-08-02T13:46:33.817Z,1.99
2023-08-02T13:49:00.428Z,1.89
2023-08-02T13:51:27.069Z,1.95
2023-08-02T13:53:54.645Z,1.96
2023-08-02T13:56:21.405Z,1.74
2023-08-02T13:58:48.062Z,2.31
2023-08-02T14:01:14.690Z,2.02
2023-08-02T14:03:41.324Z,2.16
2023-08-02T14:06:07.997Z,1.94
2023-08-02T14:08:34.681Z,1.91
2023-08-02T14:11:01.277Z,2.02
2023-08-02T14:13:27.874Z,1.90
2023-08-02T14:15:54.545Z,1.87
2023-08-02T14:18:21.182Z,1.78
2023-08-02T14:20:47.849Z,1.98
2023-08-02T14:23:14.551Z,2.06
2023-08-02T14:25:41.177Z,1.88
2023-08-02T14:28:07.796Z,1.87
2023-08-02T14:30:34.404Z,2.21
2023-08-02T14:33:01.038Z,1.98
2023-08-02T14:35:27.679Z,2.23
2023-08-02T14:37:54.287Z,2.15
2023-08-02T14:40:20.885Z,2.08
2023-08-02T14:42:47.525Z,2.28
2023-08-02T14:45:14.157Z,1.93
2023-08-02T14:47:40.791Z,2.05
2023-08-02T14:50:07.420Z,2.12
2023-08-02T14:52:34.021Z,2.12
2023-08-02T14:55:00.656Z,2.04
2023-08-02T14:57:27.263Z,2.28
2023-08-02T14:59:53.851Z,1.91
2023-08-02T15:02:20.486Z,2.20
2023-08-02T15:04:47.168Z,2.01
2023-08-02T15:07:13.820Z,1.95
2023-08-02T15:09:40.440Z,2.19
2023-08-02T15:12:07.058Z,1.96
2023-08-02T15:14:33.674Z,1.85
2023-08-02T15:17:00.385Z,2.11
2023-08-02T15:19:27.137Z,2.08
2023-08-02T15:21:53.740Z,2.01
2023-08-02T15:24:20.354Z,1.94
2023-08-02T15:26:46.952Z,1.97
2023-08-02T15:29:13.555Z,2.10
2023-08-02T15:31:40.178Z,1.82
2023-08-02T15:34:08.278Z,1.97
2023-08-02T15:36:36.025Z,2.15
2023-08-02T15:39:02.626Z,2.12
2023-08-02T15:41:29.236Z,2.18
2023-08-02T15:43:55.834Z,1.95
2023-08-02T15:46:22.570Z,1.98
2023-08-02T15:48:49.220Z,2.08
2023-08-02T15:51:15.826Z,2.21
2023-08-02T15:53:42.414Z,2.25
2023-08-02T15:56:09.001Z,2.11
2023-08-02T15:58:35.661Z,2.08
2023-08-02T16:01:02.346Z,2.08
2023-08-02T16:03:28.977Z,1.98
2023-08-02T16:05:55.585Z,2.04
2023-08-02T16:08:22.195Z,1.93
2023-08-02T16:10:48.784Z,2.12
2023-08-02T16:13:15.386Z,2.27
2023-08-02T16:15:41.988Z,2.33
2023-08-02T16:18:08.640Z,2.28
2023-08-02T16:20:35.300Z,2.21
2023-08-02T16:23:01.895Z,2.08
2023-08-02T16:25:28.493Z,2.02
2023-08-02T16:27:55.119Z,2.18
2023-08-02T16:30:21.735Z,2.12
2023-08-02T16:32:48.435Z,2.28
2023-08-02T16:35:15.063Z,2.28
2023-08-02T16:37:41.660Z,2.30
2023-08-02T16:40:08.285Z,2.59
2023-08-02T16:42:34.945Z,1.97
2023-08-02T16:45:01.556Z,2.34
2023-08-02T16:47:28.209Z,2.53
2023-08-02T16:49:54.846Z,2.06
2023-08-02T16:52:24.037Z,2.37
2023-08-02T16:54:50.835Z,2.07
2023-08-02T16:57:17.446Z,2.16
2023-08-02T16:59:44.051Z,2.25
2023-08-02T17:02:10.719Z,2.11
2023-08-02T17:04:37.386Z,2.30
2023-08-02T17:07:04.019Z,2.51
2023-08-02T17:09:30.660Z,2.47
2023-08-02T17:11:57.278Z,2.46
2023-08-02T17:14:23.896Z,2.42
2023-08-02T17:16:50.504Z,2.70
2023-08-02T17:19:17.126Z,2.62
2023-08-02T17:21:46.523Z,2.44
2023-08-02T17:24:14.471Z,2.59
2023-08-02T17:26:41.075Z,2.43
2023-08-02T17:29:07.706Z,2.46
2023-08-02T17:31:34.317Z,2.37
2023-08-02T17:34:01.004Z,2.31
2023-08-02T17:36:27.660Z,2.37
2023-08-02T17:38:54.260Z,2.40
2023-08-02T17:41:20.851Z,2.45
2023-08-02T17:43:47.459Z,2.53
2023-08-02T17:46:14.084Z,2.49
2023-08-02T17:48:42.862Z,2.32
2023-08-02T17:51:09.555Z,2.60
2023-08-02T17:53:36.153Z,2.36
2023-08-02T17:56:02.746Z,2.62
2023-08-02T17:58:29.339Z,2.56
2023-08-02T18:00:55.971Z,2.20
2023-08-02T18:03:22.577Z,2.34
2023-08-02T18:05:49.198Z,2.69
2023-08-02T18:08:15.889Z,2.77
2023-08-02T18:10:42.540Z,2.59
2023-08-02T18:13:09.146Z,2.62
2023-08-02T18:15:35.744Z,2.59
2023-08-02T18:18:02.482Z,2.76
2023-08-02T18:20:29.158Z,2.52
2023-08-02T18:22:55.938Z,2.47
2023-08-02T18:25:23.157Z,2.66
2023-08-02T18:27:49.753Z,2.45
2023-08-02T18:30:16.363Z,2.47
2023-08-02T18:32:43.060Z,2.32
2023-08-02T18:35:09.680Z,2.30
2023-08-02T18:37:36.317Z,2.17
2023-08-02T18:40:02.924Z,2.01
2023-08-02T18:42:29.518Z,3.17
2023-08-02T18:44:56.121Z,5.21
2023-08-02T18:47:22.746Z,4.23
2023-08-02T18:49:49.395Z,3.09
2023-08-02T18:52:16.003Z,2.34
2023-08-02T18:54:42.595Z,2.26
2023-08-02T18:57:09.219Z,2.06
2023-08-02T18:59:35.850Z,1.85
2023-08-02T19:02:02.464Z,1.68
2023-08-02T19:04:29.128Z,1.67
2023-08-02T19:06:55.735Z,1.52
2023-08-02T19:09:22.328Z,1.28
2023-08-02T19:11:48.936Z,1.53
2023-08-02T19:14:15.518Z,1.69
2023-08-02T19:16:42.142Z,1.66
2023-08-02T19:19:08.793Z,1.52
2023-08-02T19:21:35.412Z,1.37
2023-08-02T19:24:02.004Z,1.24
2023-08-02T19:26:28.616Z,1.28
2023-08-02T19:28:55.245Z,1.15
2023-08-02T19:31:21.940Z,1.09
2023-08-02T19:33:48.621Z,1.22
2023-08-02T19:36:15.215Z,1.31
2023-08-02T19:38:41.810Z,1.10
2023-08-02T19:41:08.416Z,1.02
2023-08-02T19:43:35.007Z,1.08
2023-08-02T19:46:01.619Z,1.17
2023-08-02T19:48:28.211Z,1.02
2023-08-02T19:50:54.797Z,0.97
2023-08-02T19:53:21.412Z,0.98
2023-08-02T19:55:48.006Z,1.04
2023-08-02T19:58:14.624Z,1.03
2023-08-02T20:00:41.261Z,0.87
2023-08-02T20:03:07.903Z,0.91
2023-08-02T20:05:34.517Z,0.87
2023-08-02T20:08:01.114Z,0.70
2023-08-02T20:10:27.732Z,0.72
2023-08-02T20:12:54.327Z,0.70
2023-08-02T20:15:20.921Z,0.72
2023-08-02T20:17:47.670Z,0.76
2023-08-02T20:20:14.357Z,0.58
2023-08-02T20:22:42.364Z,0.68
2023-08-02T20:25:10.287Z,0.70
2023-08-02T20:27:36.876Z,0.78
2023-08-02T20:30:03.519Z,0.72
2023-08-02T20:32:30.187Z,0.77
2023-08-02T20:34:56.836Z,0.77
2023-08-02T20:37:23.464Z,0.73
2023-08-02T20:39:50.081Z,0.81
2023-08-02T20:42:16.686Z,0.73
2023-08-02T20:44:43.278Z,0.75
2023-08-02T20:47:09.885Z,0.71
2023-08-02T20:49:36.484Z,0.68
2023-08-02T20:52:03.081Z,0.72
2023-08-02T20:54:29.667Z,0.73
2023-08-02T20:56:56.257Z,0.72
2023-08-02T20:59:22.856Z,0.62
2023-08-02T21:01:49.484Z,0.75
2023-08-02T21:04:16.114Z,0.61
2023-08-02T21:06:44.846Z,0.79
2023-08-02T21:09:13.079Z,0.79
2023-08-02T21:11:39.711Z,0.70
2023-08-02T21:14:06.331Z,0.76
2023-08-02T21:16:33.027Z,0.68
2023-08-02T21:18:59.647Z,0.75
2023-08-02T21:21:26.234Z,0.89
2023-08-02T21:23:52.847Z,0.75
2023-08-02T21:26:19.443Z,0.88
2023-08-02T21:28:46.025Z,0.69
2023-08-02T21:31:12.740Z,0.76
2023-08-02T21:33:39.487Z,0.85
2023-08-02T21:36:06.089Z,0.69
2023-08-02T21:38:32.730Z,0.76
2023-08-02T21:40:59.336Z,0.66
2023-08-02T21:43:25.944Z,0.72
2023-08-02T21:45:52.593Z,0.67
2023-08-02T21:48:19.209Z,0.65
2023-08-02T21:50:45.855Z,0.68
2023-08-02T21:53:12.458Z,0.74
2023-08-02T21:55:39.063Z,0.70
2023-08-02T21:58:05.663Z,0.82
2023-08-02T22:00:32.269Z,0.69
2023-08-02T22:02:58.882Z,0.91
2023-08-02T22:05:25.517Z,0.56
2023-08-02T22:07:52.106Z,0.59
2023-08-02T22:10:18.751Z,0.68
2023-08-02T22:12:45.361Z,0.67
2023-08-02T22:15:11.964Z,0.61
2023-08-02T22:17:38.615Z,0.57
2023-08-02T22:20:05.230Z,0.58
2023-08-02T22:22:31.863Z,0.66
2023-08-02T22:24:58.459Z,0.67
2023-08-02T22:27:25.065Z,0.78
2023-08-02T22:29:58.993Z,0.58
2023-08-02T22:32:26.423Z,0.75
2023-08-02T22:34:53.015Z,0.77
2023-08-02T22:37:19.607Z,0.60
2023-08-02T22:39:46.201Z,0.57
2023-08-02T22:42:12.808Z,0.68
2023-08-02T22:44:39.425Z,0.63
2023-08-02T22:47:06.038Z,0.62
2023-08-02T22:52:02.169Z,0.58
2023-08-02T22:54:28.784Z,0.60
2023-08-02T22:56:55.381Z,0.63
2023-08-02T22:59:21.968Z,0.70
2023-08-02T23:01:48.568Z,0.69
2023-08-02T23:04:15.298Z,0.66
2023-08-02T23:06:42.066Z,0.77
2023-08-02T23:09:08.700Z,0.72
2023-08-02T23:11:35.283Z,0.66
2023-08-02T23:14:01.889Z,0.77
2023-08-02T23:16:28.548Z,0.70
2023-08-02T23:18:55.158Z,0.60
2023-08-02T23:21:21.762Z,0.75
2023-08-02T23:23:48.355Z,0.63
2023-08-02T23:26:14.953Z,0.57
2023-08-02T23:28:41.548Z,0.64
2023-08-02T23:31:08.183Z,0.65
2023-08-02T23:33:35.014Z,0.56
2023-08-02T23:36:01.650Z,0.69
2023-08-02T23:38:28.271Z,0.60
2023-08-02T23:40:54.871Z,0.79
2023-08-02T23:43:21.469Z,0.82
2023-08-02T23:45:48.115Z,0.61
2023-08-02T23:48:14.763Z,0.70
2023-08-02T23:50:41.372Z,0.66
2023-08-02T23:53:07.968Z,0.55
2023-08-02T23:55:34.543Z,0.69
2023-08-02T23:58:01.173Z,0.68
